createdAt,value
2018-12-08T13:07:31.227Z,2591.74
2018-12-08T13:08:31.324Z,-128.36
2018-12-08T13:09:31.369Z,-474.09
2018-12-08T13:10:31.475Z,-604.81
2018-12-08T13:11:31.734Z,-681.26
2018-12-08T13:12:31.562Z,-726.91
2018-12-08T13:13:31.587Z,-747.08
2018-12-08T13:14:31.681Z,-769.89
2018-12-08T13:15:31.707Z,-769.11
2018-12-08T13:16:31.794Z,-790.99
2018-12-08T13:17:31.750Z,-798.97
2018-12-08T13:18:31.766Z,-802.17
2018-12-08T13:19:31.952Z,-808.67
2018-12-08T13:20:31.867Z,-815.32
2018-12-08T13:21:31.874Z,-815.97
2018-12-08T13:22:31.904Z,-819.16
2018-12-08T13:23:31.930Z,-816.13
2018-12-08T13:24:31.986Z,-828.03
2018-12-08T13:25:31.984Z,-820.80
2018-12-08T13:26:32.073Z,-824.77
2018-12-08T13:27:32.085Z,-828.45
2018-12-08T13:28:32.092Z,-823.28
2018-12-08T13:29:32.158Z,-832.92
2018-12-08T13:30:32.188Z,-835.89
2018-12-08T13:31:32.186Z,-839.39
2018-12-08T13:32:32.194Z,-830.98
2018-12-08T13:33:32.210Z,-833.94
2018-12-08T13:34:32.227Z,-835.69
2018-12-08T13:35:32.247Z,-843.68
2018-12-08T13:36:32.312Z,-839.34
2018-12-08T13:37:32.290Z,-840.37
2018-12-08T13:38:32.433Z,-836.75
2018-12-08T13:39:32.301Z,-838.42
2018-12-08T13:40:32.370Z,-845.02
2018-12-08T13:41:32.587Z,-841.85
2018-12-08T13:42:32.323Z,-840.75
2018-12-08T13:43:32.413Z,-839.85
2018-12-08T13:44:32.439Z,-837.16
2018-12-08T13:45:32.475Z,-845.51
2018-12-08T13:46:32.531Z,-845.48
2018-12-08T13:47:32.584Z,-851.18
2018-12-08T13:48:32.578Z,-847.00
2018-12-08T13:49:32.645Z,-842.84
2018-12-08T13:50:32.568Z,-845.93
2018-12-08T13:51:32.627Z,-852.37
2018-12-08T13:52:32.614Z,-856.22
2018-12-08T13:53:36.703Z,-845.92
2018-12-08T13:54:32.673Z,-851.67
2018-12-08T13:55:32.702Z,-849.25
2018-12-08T13:56:32.746Z,-849.34
2018-12-08T13:57:32.791Z,-851.87
2018-12-08T13:58:32.768Z,-855.33
2018-12-08T13:59:32.851Z,-844.77
2018-12-08T14:00:32.871Z,-849.59
2018-12-08T14:01:32.874Z,-850.06
2018-12-08T14:02:32.916Z,-851.19
2018-12-08T14:03:32.930Z,-862.24
2018-12-08T14:04:32.979Z,-852.86
2018-12-08T14:05:32.943Z,-857.16
2018-12-08T14:06:33.005Z,-851.50
2018-12-08T14:07:32.949Z,-890.86
2018-12-08T14:08:32.995Z,-914.88
2018-12-08T14:09:32.997Z,-876.64
2018-12-08T14:10:33.035Z,-873.47
2018-12-08T14:11:33.319Z,-879.10
2018-12-08T14:12:33.045Z,-876.33
2018-12-08T14:13:33.108Z,-856.05
2018-12-08T14:14:33.103Z,-863.15
2018-12-08T14:15:33.132Z,-863.55
2018-12-08T14:16:33.250Z,-908.90
2018-12-08T14:17:33.231Z,-907.15
2018-12-08T14:18:33.258Z,-910.35
2018-12-08T14:19:33.246Z,-902.22
2018-12-08T14:20:33.315Z,-905.59
2018-12-08T14:21:33.375Z,-901.64
2018-12-08T14:22:33.323Z,-855.39
2018-12-08T14:23:33.336Z,-903.69
2018-12-08T14:24:33.343Z,-907.09
2018-12-08T14:25:33.332Z,-904.01
2018-12-08T14:26:33.433Z,-902.16
2018-12-08T14:27:33.395Z,-901.94
2018-12-08T14:28:34.239Z,-897.40
2018-12-08T14:29:33.439Z,-901.01
2018-12-08T14:30:33.428Z,-899.42
2018-12-08T14:31:33.415Z,-900.31
2018-12-08T14:32:33.503Z,-901.33
2018-12-08T14:33:33.493Z,-900.35
2018-12-08T14:34:33.512Z,-906.25
2018-12-08T14:35:33.543Z,-902.69
2018-12-08T14:36:33.515Z,-901.18
2018-12-08T14:37:33.554Z,-905.87
2018-12-08T14:38:33.592Z,-899.04
2018-12-08T14:39:33.545Z,-898.77
2018-12-08T14:40:33.756Z,-855.79
2018-12-08T14:41:33.578Z,-898.72
2018-12-08T14:42:33.581Z,-908.37
2018-12-08T14:43:33.541Z,-903.25
2018-12-08T14:44:33.571Z,-913.69
2018-12-08T14:51:03.424Z,-911.08
2018-12-08T14:52:03.483Z,-992.37
2018-12-08T14:53:03.492Z,-985.58
2018-12-08T14:54:03.578Z,-959.46
2018-12-08T14:55:03.697Z,-958.88
2018-12-08T14:56:03.793Z,-967.16
2018-12-08T14:57:03.848Z,-949.18
2018-12-08T14:58:04.003Z,-950.03
2018-12-08T14:59:04.040Z,-951.27
2018-12-08T15:00:04.120Z,-949.77
2018-12-08T15:01:04.165Z,-939.58
2018-12-08T15:02:04.207Z,-924.39
2018-12-08T15:03:04.339Z,-910.81
2018-12-08T15:04:04.420Z,-925.50
2018-12-08T15:05:04.456Z,-907.74
2018-12-08T15:06:04.485Z,-912.91
2018-12-08T15:07:04.572Z,-903.16
2018-12-08T15:08:04.673Z,-902.25
2018-12-08T15:09:04.764Z,-898.12
2018-12-08T15:10:04.822Z,-896.45
2018-12-08T15:11:04.956Z,-953.38
2018-12-08T15:12:04.982Z,-948.04
2018-12-08T15:13:05.105Z,-930.14
2018-12-08T15:14:05.447Z,-934.57
2018-12-08T15:15:05.299Z,-935.09
2018-12-08T15:16:05.360Z,-932.42
2018-12-08T15:17:05.413Z,-928.64
2018-12-08T15:18:05.449Z,-931.12
2018-12-08T15:19:05.513Z,-928.82
2018-12-08T15:20:05.639Z,-924.85
2018-12-08T15:21:05.761Z,-923.70
2018-12-08T15:22:05.845Z,-923.95
2018-12-08T15:23:05.884Z,-933.18
2018-12-08T15:24:05.967Z,-935.04
2018-12-08T15:25:06.057Z,-925.87
2018-12-08T15:26:06.099Z,-922.82
2018-12-08T15:27:06.186Z,-926.13
2018-12-08T15:28:06.251Z,-923.19
2018-12-08T15:29:06.327Z,-925.78
2018-12-08T15:30:06.419Z,-931.57
2018-12-08T15:31:06.538Z,-925.42
2018-12-08T15:32:06.658Z,-916.56
2018-12-08T15:33:06.724Z,-925.70
2018-12-08T15:34:06.769Z,-921.86
2018-12-08T15:35:06.964Z,-920.17
2018-12-08T15:36:06.431Z,-929.18
2018-12-08T15:37:06.511Z,-920.07
2018-12-08T15:38:06.549Z,-920.82
2018-12-08T15:39:06.586Z,-905.95
2018-12-08T15:40:06.674Z,-924.36
2018-12-08T15:41:06.673Z,-915.70
2018-12-08T15:42:06.797Z,-923.17
2018-12-08T15:43:06.981Z,-924.09
2018-12-08T15:44:06.945Z,-932.49
2018-12-08T15:45:07.023Z,-925.13
2018-12-08T15:46:07.080Z,-931.05
2018-12-08T15:47:07.179Z,-930.10
2018-12-08T15:48:07.195Z,-929.86
2018-12-08T15:49:07.254Z,-929.29
2018-12-08T15:50:07.350Z,-931.97
2018-12-08T15:51:07.401Z,-923.05
2018-12-08T15:52:07.427Z,-924.97
2018-12-08T15:53:07.479Z,-931.39
2018-12-08T15:54:07.537Z,-928.67
2018-12-08T15:55:07.593Z,-926.42
2018-12-08T15:56:08.082Z,-926.47
2018-12-08T15:57:07.720Z,-930.82
2018-12-08T15:58:07.748Z,-933.80
2018-12-08T15:59:07.860Z,-927.33
2018-12-08T16:00:07.864Z,-928.14
2018-12-08T16:01:07.914Z,-928.98
2018-12-08T16:02:07.985Z,-932.21
2018-12-08T16:03:08.037Z,-931.85
2018-12-08T16:04:08.085Z,-937.61
2018-12-08T16:05:08.179Z,-933.28
2018-12-08T16:06:08.196Z,-931.67
2018-12-08T16:07:08.297Z,-939.71
2018-12-08T16:08:08.400Z,-940.44
2018-12-08T16:09:08.383Z,-939.10
2018-12-08T16:10:08.433Z,-941.90
2018-12-08T16:11:08.478Z,-929.17
2018-12-08T16:12:08.549Z,-939.25
2018-12-08T16:13:10.577Z,-935.85
2018-12-08T16:14:08.669Z,-940.76
2018-12-08T16:15:08.740Z,-939.42
2018-12-08T16:16:08.893Z,-940.14
2018-12-08T16:17:08.873Z,-939.23
2018-12-08T16:18:08.903Z,-948.07
2018-12-08T16:19:08.960Z,-939.63
2018-12-08T16:20:09.027Z,-929.52
2018-12-08T16:21:09.091Z,-940.64
2018-12-08T16:22:09.157Z,-944.56
2018-12-08T16:23:09.219Z,-949.23
2018-12-08T16:24:09.301Z,-942.23
2018-12-08T16:25:09.342Z,-947.34
2018-12-08T16:26:09.361Z,-943.90
2018-12-08T16:27:09.443Z,-935.07
2018-12-08T16:28:09.511Z,-947.38
2018-12-08T16:29:09.530Z,-950.32
2018-12-08T16:30:09.607Z,-942.20
2018-12-08T16:31:09.652Z,-950.21
2018-12-08T16:32:09.802Z,-932.09
2018-12-08T16:33:09.774Z,-946.61
2018-12-08T16:34:09.820Z,-944.49
2018-12-08T16:35:10.955Z,-949.95
2018-12-08T16:36:09.958Z,-944.96
2018-12-08T16:37:10.036Z,-956.31
2018-12-08T16:38:10.076Z,-954.53
2018-12-08T16:39:10.141Z,-954.10
2018-12-08T16:40:10.220Z,-949.35
2018-12-08T16:41:10.331Z,-933.49
2018-12-08T16:42:10.293Z,-938.93
2018-12-08T16:43:10.356Z,-949.88
2018-12-08T16:44:10.422Z,-951.49
2018-12-08T16:45:10.496Z,-943.72
2018-12-08T16:46:10.538Z,-946.77
2018-12-08T16:47:10.627Z,-949.15
2018-12-08T16:48:10.678Z,-941.64
2018-12-08T16:49:10.810Z,-944.39
2018-12-08T16:50:10.777Z,-947.64
2018-12-08T16:51:10.813Z,-946.00
2018-12-08T16:52:10.903Z,-952.22
2018-12-08T16:53:10.967Z,-952.47
2018-12-08T16:54:11.011Z,-952.79
2018-12-08T16:55:11.096Z,-946.46
2018-12-08T16:56:11.138Z,-955.40
2018-12-08T16:57:11.261Z,-948.71
2018-12-08T16:58:11.232Z,-943.74
2018-12-08T16:59:11.297Z,-950.39
2018-12-08T17:00:11.352Z,-947.21
2018-12-08T17:01:11.393Z,-938.65
2018-12-08T17:02:11.460Z,-946.05
2018-12-08T17:03:11.537Z,-943.96
2018-12-08T17:04:11.583Z,-948.88
2018-12-08T17:05:11.713Z,-953.45
2018-12-08T17:06:11.680Z,-953.08
2018-12-08T17:07:11.779Z,-953.54
2018-12-08T17:08:11.829Z,-952.14
2018-12-08T17:09:11.864Z,-943.94
2018-12-08T17:10:12.171Z,-949.55
2018-12-08T17:11:11.982Z,-952.81
2018-12-08T17:12:12.057Z,-949.42
2018-12-08T17:13:12.140Z,-959.19
2018-12-08T17:14:12.229Z,-941.25
2018-12-08T17:15:12.225Z,-946.91
2018-12-08T17:16:12.258Z,-952.61
2018-12-08T17:17:12.336Z,-949.88
2018-12-08T17:18:12.402Z,-955.62
2018-12-08T17:19:12.459Z,-946.22
2018-12-08T17:20:12.530Z,-961.18
2018-12-08T17:21:12.596Z,-954.23
2018-12-08T17:22:12.762Z,-952.39
2018-12-08T17:23:12.687Z,-951.70
2018-12-08T17:24:12.730Z,-956.01
2018-12-08T17:25:12.810Z,-951.72
2018-12-08T17:26:12.859Z,-954.08
2018-12-08T17:27:12.934Z,-957.56
2018-12-08T17:28:12.981Z,-951.59
2018-12-08T17:29:13.052Z,-949.51
2018-12-08T17:30:13.172Z,-949.16
2018-12-08T17:31:13.145Z,-950.46
2018-12-08T17:32:13.217Z,-956.07
2018-12-08T17:33:13.261Z,-958.84
2018-12-08T17:34:13.331Z,-957.80
2018-12-08T17:35:13.402Z,-957.08
2018-12-08T17:36:13.443Z,-949.35
2018-12-08T17:37:13.536Z,-958.45
2018-12-08T17:38:13.609Z,-958.98
2018-12-08T17:39:13.593Z,-949.77
2018-12-08T17:40:13.677Z,-955.99
2018-12-08T17:41:13.731Z,-953.09
2018-12-08T17:42:13.807Z,-949.41
2018-12-08T17:43:13.853Z,-949.44
2018-12-08T17:44:13.917Z,-958.39
2018-12-08T17:45:13.976Z,-954.60
2018-12-08T17:46:14.059Z,-954.41
2018-12-08T17:47:14.113Z,-957.03
2018-12-08T17:48:14.195Z,-953.40
2018-12-08T17:49:14.222Z,-954.96
2018-12-08T17:50:14.284Z,-962.16
2018-12-08T17:51:14.346Z,-951.30
2018-12-08T17:52:14.439Z,-950.43
2018-12-08T17:53:14.491Z,-956.83
2018-12-08T17:54:14.571Z,-950.98
2018-12-08T17:55:14.719Z,-948.63
2018-12-08T17:56:14.698Z,-953.35
2018-12-08T17:57:14.747Z,-948.57
2018-12-08T17:58:14.795Z,-943.98
2018-12-08T17:59:14.839Z,-950.50
2018-12-08T18:00:14.935Z,-957.85
2018-12-08T18:01:14.991Z,-957.89
2018-12-08T18:02:15.184Z,-953.83
2018-12-08T18:03:15.183Z,-950.68
2018-12-08T18:04:15.168Z,-950.87
2018-12-08T18:05:15.227Z,-949.62
2018-12-08T18:06:15.278Z,-955.35
2018-12-08T18:07:15.354Z,-946.71
2018-12-08T18:08:15.430Z,-950.39
2018-12-08T18:09:15.477Z,-952.05
2018-12-08T18:10:15.545Z,-956.25
2018-12-08T18:11:15.649Z,-947.61
2018-12-08T18:12:15.676Z,-956.10
2018-12-08T18:13:15.737Z,-947.63
2018-12-08T18:14:15.785Z,-953.94
2018-12-08T18:15:15.877Z,-951.90
2018-12-08T18:16:16.012Z,-957.04
2018-12-08T18:17:15.986Z,-961.16
2018-12-08T18:18:16.031Z,-959.59
2018-12-08T18:19:16.155Z,-959.76
2018-12-08T18:20:16.118Z,-957.11
2018-12-08T18:21:18.970Z,-952.67
2018-12-08T18:22:17.041Z,-954.65
2018-12-08T18:23:16.298Z,-962.02
2018-12-08T18:24:16.355Z,-954.97
2018-12-08T18:25:16.414Z,-955.76
2018-12-08T18:26:16.458Z,-953.55
2018-12-08T18:27:16.582Z,-954.16
2018-12-08T18:28:16.649Z,-951.39
2018-12-08T18:29:16.633Z,-954.04
2018-12-08T18:30:16.711Z,-954.07
2018-12-08T18:31:16.738Z,-951.18
2018-12-08T18:32:16.821Z,-960.02
2018-12-08T18:33:16.912Z,-951.46
2018-12-08T18:34:16.937Z,-954.03
2018-12-08T18:35:16.978Z,-955.92
2018-12-08T18:36:17.147Z,-951.68
2018-12-08T18:37:17.103Z,-959.21
2018-12-08T18:38:17.196Z,-956.62
2018-12-08T18:39:17.212Z,-953.19
2018-12-08T18:40:17.249Z,-953.50
2018-12-08T18:41:17.308Z,-950.74
2018-12-08T18:42:17.405Z,-958.77
2018-12-08T18:43:17.444Z,-958.31
2018-12-08T18:44:17.589Z,-958.85
2018-12-08T18:45:17.542Z,-958.81
2018-12-08T18:46:17.620Z,-956.94
2018-12-08T18:47:17.679Z,-956.77
2018-12-08T18:48:17.781Z,-963.03
2018-12-08T18:49:18.915Z,-956.00
2018-12-08T18:50:18.394Z,-939.75
2018-12-08T18:51:17.871Z,-948.70
2018-12-08T18:52:18.027Z,-953.82
2018-12-08T18:53:17.996Z,-958.21
2018-12-08T18:54:18.061Z,-952.13
2018-12-08T18:55:18.092Z,-952.26
2018-12-08T18:56:18.149Z,-957.12
2018-12-08T18:57:18.222Z,-957.66
2018-12-08T18:58:18.263Z,-954.97
2018-12-08T18:59:18.341Z,-956.80
2018-12-08T19:00:18.448Z,-955.01
2018-12-08T19:01:18.445Z,-955.29
2018-12-08T19:02:18.509Z,-962.75
2018-12-08T19:03:18.552Z,-951.98
2018-12-08T19:04:18.661Z,-956.83
2018-12-08T19:05:18.665Z,-955.98
2018-12-08T19:06:18.723Z,-960.93
2018-12-08T19:07:18.794Z,-953.97
2018-12-08T19:08:18.844Z,-955.38
2018-12-08T19:09:19.009Z,-950.02
2018-12-08T19:10:18.940Z,-957.71
2018-12-08T19:11:19.002Z,-955.22
2018-12-08T19:12:19.089Z,-950.05
2018-12-08T19:13:19.109Z,-952.77
2018-12-08T19:14:19.200Z,-954.28
2018-12-08T19:15:19.230Z,-901.37
2018-12-08T19:16:19.274Z,-912.02
2018-12-08T19:17:19.482Z,-906.09
2018-12-08T19:18:19.402Z,-907.16
2018-12-08T19:19:19.493Z,-902.56
2018-12-08T19:20:19.527Z,-907.60
2018-12-08T19:21:19.565Z,-904.78
2018-12-08T19:22:19.653Z,-906.24
2018-12-08T19:23:19.710Z,-904.64
2018-12-08T19:24:19.795Z,-910.84
2018-12-08T19:25:19.895Z,-908.10
2018-12-08T19:26:19.862Z,-904.59
2018-12-08T19:27:19.957Z,-906.90
2018-12-08T19:28:19.981Z,-901.54
2018-12-08T19:29:20.057Z,-907.05
2018-12-08T19:30:20.090Z,-902.66
2018-12-08T19:31:20.173Z,-905.83
2018-12-08T19:32:20.224Z,-908.39
2018-12-08T19:33:20.303Z,-899.76
2018-12-08T19:34:20.500Z,-911.17
2018-12-08T19:35:20.380Z,-903.72
2018-12-08T19:36:20.662Z,-906.90
2018-12-08T19:37:20.521Z,-913.44
2018-12-08T19:38:20.574Z,-905.46
2018-12-08T19:39:20.647Z,-902.19
2018-12-08T19:40:20.684Z,-909.61
2018-12-08T19:41:20.743Z,-903.88
2018-12-08T19:42:20.887Z,-908.40
2018-12-08T19:43:20.836Z,-911.84
2018-12-08T19:44:20.913Z,-908.49
2018-12-08T19:45:20.960Z,-906.70
2018-12-08T19:46:21.026Z,-901.92
2018-12-08T19:47:21.083Z,-964.65
2018-12-08T19:48:21.118Z,-962.26
2018-12-08T19:49:21.202Z,-963.32
2018-12-08T19:50:21.311Z,-957.85
2018-12-08T19:51:21.287Z,-960.63
2018-12-08T19:52:21.358Z,-958.22
2018-12-08T19:53:21.403Z,-960.54
2018-12-08T19:54:21.498Z,-959.54
2018-12-08T19:55:21.531Z,-955.32
2018-12-08T19:56:21.581Z,-912.16
2018-12-08T19:57:21.651Z,-908.13
2018-12-08T19:58:21.796Z,-959.35
2018-12-08T19:59:21.764Z,-956.84
2018-12-08T20:00:21.808Z,-960.76
2018-12-08T20:01:21.853Z,-955.41
2018-12-08T20:02:21.925Z,-905.19
2018-12-08T20:03:21.972Z,-907.89
2018-12-08T20:04:22.040Z,-900.51
2018-12-08T20:05:22.117Z,-906.06
2018-12-08T20:06:22.189Z,-904.83
2018-12-08T20:07:22.191Z,-908.04
2018-12-08T20:08:22.247Z,-906.45
2018-12-08T20:09:22.332Z,-896.75
2018-12-08T20:10:22.377Z,-904.97
2018-12-08T20:11:22.427Z,-903.11
2018-12-08T20:12:22.517Z,-896.98
2018-12-08T20:13:22.554Z,-902.39
2018-12-08T20:14:22.648Z,-907.16
2018-12-08T20:15:22.715Z,-896.51
2018-12-08T20:16:22.746Z,-899.49
2018-12-08T20:17:22.817Z,-909.12
2018-12-08T20:18:22.856Z,-903.91
2018-12-08T20:19:22.928Z,-900.50
2018-12-08T20:20:23.004Z,-901.72
2018-12-08T20:21:23.150Z,-904.73
2018-12-08T20:22:23.144Z,-901.26
2018-12-08T20:23:23.268Z,-902.44
2018-12-08T20:24:23.259Z,-905.57
2018-12-08T20:25:23.289Z,-898.32
2018-12-08T20:26:23.335Z,-904.42
2018-12-08T20:27:23.406Z,-901.71
2018-12-08T20:28:23.462Z,-910.42
2018-12-08T20:29:23.524Z,-898.69
2018-12-08T20:30:23.611Z,-901.74
2018-12-08T20:31:23.779Z,-899.90
2018-12-08T20:32:23.755Z,-897.66
2018-12-08T20:33:23.784Z,-898.67
2018-12-08T20:34:23.848Z,-901.83
2018-12-08T20:35:23.903Z,-900.59
2018-12-08T20:36:23.967Z,-896.09
2018-12-08T20:37:24.026Z,-898.41
2018-12-08T20:38:24.062Z,-893.54
2018-12-08T20:39:24.220Z,-899.66
2018-12-08T20:40:24.192Z,-900.36
2018-12-08T20:41:24.246Z,-897.06
2018-12-08T20:42:24.320Z,-888.30
2018-12-08T20:43:24.374Z,-896.41
2018-12-08T20:44:24.427Z,-893.01
2018-12-08T20:45:24.478Z,-896.97
2018-12-08T20:46:25.923Z,-895.77
2018-12-08T20:47:24.655Z,-895.58
2018-12-08T20:48:24.639Z,-892.51
2018-12-08T20:49:24.947Z,-890.09
2018-12-08T20:50:24.776Z,-885.14
2018-12-08T20:51:24.832Z,-900.04
2018-12-08T20:52:24.915Z,-896.46
2018-12-08T20:53:24.951Z,-889.57
2018-12-08T20:54:25.044Z,-896.13
2018-12-08T20:55:25.096Z,-886.21
2018-12-08T20:56:25.212Z,-897.95
2018-12-08T20:57:25.200Z,-893.35
2018-12-08T20:58:25.233Z,-885.33
2018-12-08T20:59:25.322Z,-902.34
2018-12-08T21:00:25.379Z,-898.38
2018-12-08T21:01:25.438Z,-895.82
2018-12-08T21:02:25.522Z,-899.18
2018-12-08T21:03:25.545Z,-897.06
2018-12-08T21:04:25.725Z,-902.31
2018-12-08T21:05:25.663Z,-903.14
2018-12-08T21:06:25.704Z,-904.34
2018-12-08T21:07:25.782Z,-906.53
2018-12-08T21:08:25.841Z,-906.86
2018-12-08T21:09:25.924Z,-894.20
2018-12-08T21:10:25.999Z,-902.23
2018-12-08T21:11:26.021Z,-901.01
2018-12-08T21:12:26.177Z,-899.41
2018-12-08T21:13:26.134Z,-905.08
2018-12-08T21:14:26.239Z,-901.46
2018-12-08T21:15:26.272Z,-896.70
2018-12-08T21:16:26.308Z,-906.41
2018-12-08T21:17:26.388Z,-901.86
2018-12-08T21:18:26.442Z,-903.45
2018-12-08T21:19:26.518Z,-904.42
2018-12-08T21:20:26.596Z,-902.21
2018-12-08T21:21:26.598Z,-901.22
2018-12-08T21:22:26.683Z,-912.52
2018-12-08T21:23:27.191Z,-900.84
2018-12-08T21:24:26.807Z,-904.44
2018-12-08T21:25:26.899Z,-906.34
2018-12-08T21:26:26.928Z,-902.76
2018-12-08T21:27:27.004Z,-897.69
2018-12-08T21:28:27.088Z,-909.93
2018-12-08T21:29:27.202Z,-900.14
2018-12-08T21:30:27.503Z,-904.62
2018-12-08T21:31:27.287Z,-905.12
2018-12-08T21:32:27.339Z,-900.74
2018-12-08T21:33:27.420Z,-907.55
2018-12-08T21:34:27.495Z,-905.26
2018-12-08T21:35:27.542Z,-914.53
2018-12-08T21:36:27.626Z,-908.56
2018-12-08T21:37:27.857Z,-904.22
2018-12-08T21:38:27.707Z,-905.03
2018-12-08T21:39:27.786Z,-909.43
2018-12-08T21:40:27.826Z,-904.26
2018-12-08T21:41:27.948Z,-907.96
2018-12-08T21:42:27.954Z,-903.37
2018-12-08T21:43:28.011Z,-907.03
2018-12-08T21:44:28.111Z,-909.66
2018-12-08T21:45:28.250Z,-909.39
2018-12-08T21:46:28.204Z,-906.71
2018-12-08T21:47:28.239Z,-889.92
2018-12-08T21:48:28.292Z,-904.98
2018-12-08T21:49:28.372Z,-903.23
2018-12-08T21:50:29.213Z,-905.68
2018-12-08T21:51:28.495Z,-908.55
2018-12-08T21:52:28.546Z,-911.76
2018-12-08T21:53:28.642Z,-907.29
2018-12-08T21:54:28.634Z,-903.63
2018-12-08T21:55:28.691Z,-896.86
2018-12-08T21:56:28.793Z,-910.91
2018-12-08T21:57:28.820Z,-906.74
2018-12-08T21:58:28.879Z,-906.74
2018-12-08T21:59:28.968Z,-916.42
2018-12-08T22:00:28.988Z,-915.39
2018-12-08T22:01:29.352Z,-906.57
2018-12-08T22:02:29.078Z,-915.66
2018-12-08T22:03:29.175Z,-905.43
2018-12-08T22:04:29.235Z,-905.47
2018-12-08T22:05:29.275Z,-914.26
2018-12-08T22:06:29.351Z,-913.41
2018-12-08T22:07:29.383Z,-911.48
2018-12-08T22:08:29.442Z,-913.24
2018-12-08T22:09:29.535Z,-909.22
2018-12-08T22:10:29.671Z,-912.00
2018-12-08T22:11:29.663Z,-909.04
2018-12-08T22:12:29.668Z,-912.25
2018-12-08T22:13:29.744Z,-911.98
2018-12-08T22:14:30.644Z,-912.83
2018-12-08T22:15:29.839Z,-914.93
2018-12-08T22:16:29.929Z,-918.33
2018-12-08T22:17:29.966Z,-910.98
2018-12-08T22:18:30.141Z,-917.28
2018-12-08T22:19:30.112Z,-915.09
2018-12-08T22:20:30.147Z,-915.91
2018-12-08T22:21:30.236Z,-921.52
2018-12-08T22:22:30.287Z,-914.49
2018-12-08T22:23:30.333Z,-911.94
2018-12-08T22:24:30.409Z,-914.03
2018-12-08T22:25:30.449Z,-914.47
2018-12-08T22:26:30.605Z,-911.50
2018-12-08T22:27:30.565Z,-906.96
2018-12-08T22:28:30.627Z,-910.43
2018-12-08T22:29:30.709Z,-915.99
2018-12-08T22:30:30.769Z,-916.92
2018-12-08T22:31:30.846Z,-912.58
2018-12-08T22:32:30.874Z,-915.39
2018-12-08T22:33:30.954Z,-911.43
2018-12-08T22:34:31.075Z,-907.36
2018-12-08T22:35:31.028Z,-912.81
2018-12-08T22:36:31.127Z,-918.01
2018-12-08T22:37:31.161Z,-911.90
2018-12-08T22:38:31.203Z,-916.56
2018-12-08T22:39:31.288Z,-915.75
2018-12-08T22:40:31.331Z,-913.10
2018-12-08T22:41:31.418Z,-921.89
2018-12-08T22:42:31.471Z,-910.49
2018-12-08T22:43:31.557Z,-918.29
2018-12-08T22:44:31.576Z,-912.46
2018-12-08T22:45:31.636Z,-917.30
2018-12-08T22:46:31.734Z,-913.62
2018-12-08T22:47:31.744Z,-905.90
2018-12-08T22:48:33.792Z,-910.01
2018-12-08T22:49:31.888Z,-906.77
2018-12-08T22:50:31.937Z,-917.36
2018-12-08T22:51:32.113Z,-913.21
2018-12-08T22:52:32.038Z,-911.88
2018-12-08T22:53:32.113Z,-910.91
2018-12-08T22:54:32.165Z,-908.92
2018-12-08T22:55:32.197Z,-914.40
2018-12-08T22:56:32.302Z,-911.71
2018-12-08T22:57:32.316Z,-914.57
2018-12-08T22:58:32.381Z,-907.43
2018-12-08T22:59:32.538Z,-913.38
2018-12-08T23:00:32.474Z,-913.77
2018-12-08T23:01:32.588Z,-910.06
2018-12-08T23:02:32.609Z,-896.88
2018-12-08T23:03:32.666Z,-911.25
2018-12-08T23:04:32.766Z,-914.08
2018-12-08T23:05:32.781Z,-901.67
2018-12-08T23:06:32.872Z,-910.99
2018-12-08T23:07:32.940Z,-912.44
2018-12-08T23:08:32.955Z,-911.07
2018-12-08T23:09:33.021Z,-910.33
2018-12-08T23:10:33.062Z,-913.31
2018-12-08T23:11:33.160Z,-909.23
2018-12-08T23:12:33.175Z,-900.74
2018-12-08T23:13:33.229Z,-905.99
2018-12-08T23:14:33.524Z,-909.65
2018-12-08T23:15:33.467Z,-907.09
2018-12-08T23:16:33.481Z,-901.53
2018-12-08T23:17:33.532Z,-905.03
2018-12-08T23:18:33.586Z,-903.17
2018-12-08T23:19:33.682Z,-912.57
2018-12-08T23:20:33.719Z,-903.32
2018-12-08T23:21:33.807Z,-903.89
2018-12-08T23:22:33.859Z,-906.18
2018-12-08T23:23:33.926Z,-902.66
2018-12-08T23:24:34.118Z,-910.22
2018-12-08T23:25:34.006Z,-905.31
2018-12-08T23:26:34.094Z,-904.72
2018-12-08T23:27:34.120Z,-892.27
2018-12-08T23:28:34.178Z,-905.77
2018-12-08T23:29:34.258Z,-908.63
2018-12-08T23:30:34.311Z,-951.77
2018-12-08T23:31:34.374Z,-959.10
2018-12-08T23:32:34.522Z,-959.74
2018-12-08T23:33:34.458Z,-954.95
2018-12-08T23:34:34.537Z,-960.36
2018-12-08T23:35:34.588Z,-961.79
2018-12-08T23:36:34.667Z,-953.78
2018-12-08T23:37:34.707Z,-957.53
2018-12-08T23:38:34.786Z,-959.71
2018-12-08T23:39:38.968Z,-955.82
2018-12-08T23:40:35.914Z,-956.36
2018-12-08T23:41:34.938Z,-960.18
2018-12-08T23:42:34.999Z,-961.84
2018-12-08T23:43:35.034Z,-962.03
2018-12-08T23:44:35.107Z,-961.15
2018-12-08T23:45:35.143Z,-957.16
2018-12-08T23:46:35.248Z,-958.21
2018-12-08T23:47:35.277Z,-962.46
2018-12-08T23:48:35.434Z,-958.40
2018-12-08T23:49:35.410Z,-959.99
2018-12-08T23:50:35.438Z,-956.34
2018-12-08T23:51:35.528Z,-957.48
2018-12-08T23:52:35.559Z,-964.09
2018-12-08T23:53:35.639Z,-951.35
2018-12-08T23:54:35.708Z,-957.55
2018-12-08T23:55:35.753Z,-958.62
2018-12-08T23:56:35.871Z,-964.61
2018-12-08T23:57:35.954Z,-961.25
2018-12-08T23:58:35.922Z,-953.56
2018-12-08T23:59:35.997Z,-959.18
